createdAt,value
2017-05-18T00:00:53.682Z,0
2017-05-18T00:01:53.672Z,0
2017-05-18T00:02:53.689Z,0
2017-05-18T00:03:53.375Z,0
2017-05-18T00:04:53.363Z,0
2017-05-18T00:05:53.671Z,0
2017-05-18T00:06:53.664Z,0
2017-05-18T00:07:53.364Z,0
2017-05-18T00:08:53.662Z,0
2017-05-18T00:09:53.855Z,0
2017-05-18T00:10:53.667Z,0
2017-05-18T00:11:53.351Z,0
2017-05-18T00:12:53.345Z,0
2017-05-18T00:13:53.346Z,0
2017-05-18T00:14:53.651Z,0
2017-05-18T00:15:53.656Z,0
2017-05-18T00:16:53.637Z,0
2017-05-18T00:17:53.643Z,0
2017-05-18T00:18:53.029Z,0
2017-05-18T00:19:53.330Z,0
2017-05-18T00:20:53.324Z,0
2017-05-18T00:21:53.631Z,0
2017-05-18T00:22:53.327Z,0
2017-05-18T00:23:53.891Z,0
2017-05-18T00:24:53.627Z,0
2017-05-18T00:25:53.619Z,0
2017-05-18T00:26:53.617Z,0
2017-05-18T00:27:53.615Z,0
2017-05-18T00:28:53.327Z,0
2017-05-18T00:29:53.615Z,0
2017-05-18T00:30:53.307Z,0
2017-05-18T00:31:53.007Z,0
2017-05-18T00:32:53.614Z,0
2017-05-18T00:33:53.620Z,0
2017-05-18T00:34:53.595Z,0
2017-05-18T00:35:53.598Z,0
2017-05-18T00:36:53.291Z,0
2017-05-18T00:37:53.600Z,0
2017-05-18T00:38:53.594Z,0
2017-05-18T00:39:53.584Z,0
2017-05-18T00:40:53.580Z,0
2017-05-18T00:41:52.970Z,0
2017-05-18T00:42:52.968Z,0
2017-05-18T00:43:53.578Z,0
2017-05-18T00:44:53.578Z,0
2017-05-18T00:45:53.264Z,0
2017-05-18T00:46:53.568Z,0
2017-05-18T00:47:53.577Z,0
2017-05-18T00:48:53.563Z,0
2017-05-18T00:49:53.262Z,0
2017-05-18T00:50:53.567Z,0
2017-05-18T00:51:53.561Z,0
2017-05-18T00:52:53.258Z,0
2017-05-18T00:53:53.551Z,0
2017-05-18T00:54:53.247Z,0
2017-05-18T00:55:53.242Z,0
2017-05-18T00:56:53.543Z,0
2017-05-18T00:57:52.993Z,0
2017-05-18T00:58:53.238Z,0
2017-05-18T00:59:53.539Z,0
2017-05-18T01:00:52.927Z,0
2017-05-18T01:01:53.534Z,0
2017-05-18T01:02:53.297Z,0
2017-05-18T01:03:53.529Z,0
2017-05-18T01:04:53.524Z,0
2017-05-18T01:05:53.523Z,0
2017-05-18T01:06:53.525Z,0
2017-05-18T01:07:53.532Z,0
2017-05-18T01:08:53.520Z,0
2017-05-18T01:09:52.903Z,0
2017-05-18T01:10:52.904Z,0
2017-05-18T01:11:53.510Z,0
2017-05-18T01:12:53.200Z,0
2017-05-18T01:13:53.202Z,0
2017-05-18T01:14:53.195Z,0
2017-05-18T01:15:53.196Z,0
2017-05-18T01:16:53.496Z,0
2017-05-18T01:17:53.496Z,0
2017-05-18T01:18:53.490Z,0
2017-05-18T01:19:53.186Z,0
2017-05-18T01:20:52.878Z,0
2017-05-18T01:21:53.485Z,0
2017-05-18T01:22:53.177Z,0
2017-05-18T01:23:53.477Z,0
2017-05-18T01:24:53.173Z,0
2017-05-18T01:25:53.475Z,0
2017-05-18T01:26:52.861Z,0
2017-05-18T01:27:53.473Z,0
2017-05-18T01:28:53.466Z,0
2017-05-18T01:29:53.464Z,0
2017-05-18T01:30:53.469Z,0
2017-05-18T01:31:53.462Z,0
2017-05-18T01:32:53.154Z,0
2017-05-18T01:33:53.448Z,0
2017-05-18T01:34:53.454Z,0
2017-05-18T01:35:53.140Z,0
2017-05-18T01:36:53.447Z,0
2017-05-18T01:37:53.446Z,0
2017-05-18T01:38:53.443Z,0
2017-05-18T01:39:53.155Z,0
2017-05-18T01:40:53.128Z,0
2017-05-18T01:41:53.436Z,0
2017-05-18T01:42:53.431Z,0
2017-05-18T01:43:52.822Z,0
2017-05-18T01:44:53.424Z,0
2017-05-18T01:45:53.420Z,0
2017-05-18T01:46:53.422Z,0
2017-05-18T01:47:53.106Z,0
2017-05-18T01:48:53.425Z,0
2017-05-18T01:49:53.106Z,0
2017-05-18T01:50:53.424Z,0
2017-05-18T01:51:53.407Z,0
2017-05-18T01:52:53.103Z,0
2017-05-18T01:53:53.407Z,0
2017-05-18T01:54:53.405Z,0
2017-05-18T01:55:53.086Z,0
2017-05-18T01:56:53.399Z,0
2017-05-18T01:57:53.391Z,0
2017-05-18T01:58:53.391Z,0
2017-05-18T01:59:53.085Z,0
2017-05-18T02:00:52.787Z,0
2017-05-18T02:01:53.383Z,0
2017-05-18T02:02:53.381Z,0
2017-05-18T02:03:53.375Z,0
2017-05-18T02:04:53.384Z,0
2017-05-18T02:05:53.074Z,0
2017-05-18T02:06:53.057Z,0
2017-05-18T02:07:53.062Z,0
2017-05-18T02:08:53.365Z,0
2017-05-18T02:09:53.112Z,0
2017-05-18T02:10:53.362Z,0
2017-05-18T02:11:53.349Z,0
2017-05-18T02:12:53.052Z,0
2017-05-18T02:13:53.055Z,0
2017-05-18T02:14:52.739Z,0
2017-05-18T02:15:53.341Z,0
2017-05-18T02:16:53.347Z,0
2017-05-18T02:17:53.338Z,0
2017-05-18T02:18:53.390Z,0
2017-05-18T02:19:53.335Z,0
2017-05-18T02:20:53.033Z,0
2017-05-18T02:21:53.328Z,0
2017-05-18T02:22:53.027Z,0
2017-05-18T02:23:53.017Z,0
2017-05-18T02:24:53.324Z,0
2017-05-18T02:25:53.020Z,0
2017-05-18T02:26:53.325Z,0
2017-05-18T02:27:53.315Z,0
2017-05-18T02:28:53.313Z,0
2017-05-18T02:29:53.316Z,0
2017-05-18T02:30:53.306Z,0
2017-05-18T02:31:53.304Z,0
2017-05-18T02:32:53.303Z,0
2017-05-18T02:33:52.995Z,0
2017-05-18T02:34:52.682Z,0
2017-05-18T02:35:52.987Z,0
2017-05-18T02:36:52.985Z,0
2017-05-18T02:37:53.292Z,0
2017-05-18T02:38:53.286Z,0
2017-05-18T02:39:53.282Z,0
2017-05-18T02:40:52.670Z,0
2017-05-18T02:41:52.994Z,0
2017-05-18T02:42:53.277Z,0
2017-05-18T02:43:53.273Z,0
2017-05-18T02:44:52.969Z,0
2017-05-18T02:45:53.266Z,0
2017-05-18T02:46:52.958Z,0
2017-05-18T02:47:52.957Z,0
2017-05-18T02:48:53.270Z,0
2017-05-18T02:49:52.948Z,0
2017-05-18T02:50:52.951Z,0
2017-05-18T02:51:53.256Z,0
2017-05-18T02:52:53.006Z,0
2017-05-18T02:53:53.243Z,0
2017-05-18T02:54:53.243Z,0
2017-05-18T02:55:53.239Z,0
2017-05-18T02:56:53.245Z,0
2017-05-18T02:57:53.238Z,0
2017-05-18T02:58:52.623Z,0
2017-05-18T02:59:53.237Z,0
2017-05-18T03:00:53.226Z,0
2017-05-18T03:01:53.224Z,0
2017-05-18T03:02:52.621Z,0
2017-05-18T03:03:52.921Z,0
2017-05-18T03:04:52.913Z,0
2017-05-18T03:05:52.908Z,0
2017-05-18T03:06:52.903Z,0
2017-05-18T03:07:53.211Z,0
2017-05-18T03:08:52.911Z,0
2017-05-18T03:09:53.209Z,0
2017-05-18T03:10:53.201Z,0
2017-05-18T03:11:52.889Z,0
2017-05-18T03:12:53.197Z,0
2017-05-18T03:13:53.196Z,0
2017-05-18T03:14:53.210Z,0
2017-05-18T03:15:53.190Z,0
2017-05-18T03:16:53.184Z,0
2017-05-18T03:17:53.188Z,0
2017-05-18T03:18:52.877Z,0
2017-05-18T03:19:53.173Z,0
2017-05-18T03:20:52.864Z,0
2017-05-18T03:21:53.172Z,0
2017-05-18T03:22:52.866Z,0
2017-05-18T03:23:53.164Z,0
2017-05-18T03:24:53.164Z,0
2017-05-18T03:25:53.163Z,0
2017-05-18T03:26:53.156Z,0
2017-05-18T03:27:53.155Z,0
2017-05-18T03:28:52.847Z,0
2017-05-18T03:29:53.149Z,0
2017-05-18T03:30:52.840Z,0
2017-05-18T03:31:52.837Z,0
2017-05-18T03:32:53.146Z,0
2017-05-18T03:33:53.145Z,0
2017-05-18T03:34:53.135Z,0
2017-05-18T03:35:53.127Z,0
2017-05-18T03:36:52.830Z,0
2017-05-18T03:37:52.822Z,0
2017-05-18T03:38:52.818Z,0
2017-05-18T03:39:53.122Z,0
2017-05-18T03:40:53.121Z,0
2017-05-18T03:41:53.124Z,0
2017-05-18T03:42:52.820Z,0
2017-05-18T03:43:53.118Z,0
2017-05-18T03:44:52.804Z,0
2017-05-18T03:45:53.105Z,0
2017-05-18T03:46:52.493Z,5
2017-05-18T03:47:53.099Z,5
2017-05-18T03:48:53.098Z,5
2017-05-18T03:49:52.791Z,5
2017-05-18T03:50:52.482Z,5
2017-05-18T03:51:52.782Z,5
2017-05-18T03:52:53.161Z,5
2017-05-18T03:53:53.083Z,5
2017-05-18T03:54:53.092Z,10
2017-05-18T03:55:52.827Z,10
2017-05-18T03:56:53.078Z,10
2017-05-18T03:57:53.076Z,10
2017-05-18T03:58:53.078Z,10
2017-05-18T03:59:52.456Z,10
2017-05-18T04:00:53.065Z,10
2017-05-18T04:01:52.757Z,10
2017-05-18T04:02:53.122Z,10
2017-05-18T04:03:53.059Z,15
2017-05-18T04:04:53.059Z,15
2017-05-18T04:05:53.049Z,15
2017-05-18T04:06:52.737Z,15
2017-05-18T04:07:53.056Z,15
2017-05-18T04:08:53.045Z,15
2017-05-18T04:09:53.042Z,15
2017-05-18T04:10:52.431Z,15
2017-05-18T04:11:53.036Z,20
2017-05-18T04:12:53.037Z,20
2017-05-18T04:13:53.032Z,20
2017-05-18T04:14:53.029Z,20
2017-05-18T04:15:53.023Z,20
2017-05-18T04:16:53.021Z,20
2017-05-18T04:17:53.034Z,25
2017-05-18T04:18:53.016Z,25
2017-05-18T04:19:52.405Z,25
2017-05-18T04:20:52.707Z,25
2017-05-18T04:21:53.005Z,25
2017-05-18T04:22:52.699Z,30
2017-05-18T04:23:53.071Z,30
2017-05-18T04:24:53.001Z,30
2017-05-18T04:25:52.997Z,30
2017-05-18T04:26:52.687Z,30
2017-05-18T04:27:52.690Z,25
2017-05-18T04:28:52.993Z,25
2017-05-18T04:29:52.991Z,25
2017-05-18T04:30:52.377Z,25
2017-05-18T04:31:52.991Z,25
2017-05-18T04:32:52.680Z,25
2017-05-18T04:33:52.676Z,30
2017-05-18T04:34:52.669Z,25
2017-05-18T04:35:52.972Z,25
2017-05-18T04:36:52.716Z,25
2017-05-18T04:37:52.667Z,25
2017-05-18T04:38:52.965Z,25
2017-05-18T04:39:52.656Z,25
2017-05-18T04:40:52.347Z,20
2017-05-18T04:41:52.953Z,20
2017-05-18T04:42:52.648Z,20
2017-05-18T04:43:52.647Z,20
2017-05-18T04:44:52.944Z,20
2017-05-18T04:45:52.638Z,20
2017-05-18T04:46:52.941Z,20
2017-05-18T04:47:52.633Z,20
2017-05-18T04:48:52.633Z,20
2017-05-18T04:49:52.631Z,20
2017-05-18T04:50:52.329Z,25
2017-05-18T04:51:52.618Z,25
2017-05-18T04:52:52.926Z,25
2017-05-18T04:53:52.626Z,25
2017-05-18T04:54:52.313Z,30
2017-05-18T04:55:52.624Z,30
2017-05-18T04:56:52.636Z,30
2017-05-18T04:57:52.604Z,35
2017-05-18T04:58:52.910Z,35
2017-05-18T04:59:52.912Z,35
2017-05-18T05:00:52.905Z,35
2017-05-18T05:01:52.910Z,35
2017-05-18T05:02:52.901Z,35
2017-05-18T05:03:52.896Z,35
2017-05-18T05:04:52.907Z,35
2017-05-18T05:05:52.897Z,35
2017-05-18T05:06:52.889Z,35
2017-05-18T05:07:52.895Z,30
2017-05-18T05:08:52.579Z,30
2017-05-18T05:09:52.885Z,30
2017-05-18T05:10:52.578Z,25
2017-05-18T05:11:52.571Z,25
2017-05-18T05:12:52.879Z,20
2017-05-18T05:13:52.870Z,20
2017-05-18T05:14:52.562Z,20
2017-05-18T05:15:52.581Z,20
2017-05-18T05:16:52.867Z,15
2017-05-18T05:17:52.862Z,15
2017-05-18T05:18:52.859Z,15
2017-05-18T05:19:52.853Z,15
2017-05-18T05:20:52.545Z,15
2017-05-18T05:21:52.845Z,15
2017-05-18T05:22:52.853Z,15
2017-05-18T05:23:52.545Z,15
2017-05-18T05:24:52.846Z,15
2017-05-18T05:25:52.229Z,15
2017-05-18T05:26:52.833Z,15
2017-05-18T05:27:52.837Z,15
2017-05-18T05:28:52.839Z,15
2017-05-18T05:29:52.528Z,20
2017-05-18T05:30:52.524Z,20
2017-05-18T05:31:52.522Z,20
2017-05-18T05:32:52.831Z,25
2017-05-18T05:33:52.516Z,25
2017-05-18T05:34:52.819Z,30
2017-05-18T05:35:52.814Z,30
2017-05-18T05:36:52.501Z,35
2017-05-18T05:37:52.813Z,40
2017-05-18T05:38:52.501Z,45
2017-05-18T05:39:52.811Z,50
2017-05-18T05:40:52.802Z,55
2017-05-18T05:41:52.492Z,55
2017-05-18T05:42:52.795Z,60
2017-05-18T05:43:52.797Z,70
2017-05-18T05:44:52.179Z,75
2017-05-18T05:45:52.485Z,85
2017-05-18T05:46:52.830Z,90
2017-05-18T05:47:52.483Z,95
2017-05-18T05:48:52.477Z,100
2017-05-18T05:49:52.777Z,210
2017-05-18T05:50:52.476Z,370
2017-05-18T05:51:52.772Z,455
2017-05-18T05:52:52.771Z,85
2017-05-18T05:53:52.467Z,80
2017-05-18T05:54:52.460Z,75
2017-05-18T05:55:52.154Z,75
2017-05-18T05:56:52.762Z,75
2017-05-18T05:57:52.451Z,75
2017-05-18T05:58:52.460Z,75
2017-05-18T05:59:52.759Z,75
2017-05-18T06:00:52.452Z,80
2017-05-18T06:01:52.444Z,80
2017-05-18T06:02:52.754Z,80
2017-05-18T06:03:52.746Z,85
2017-05-18T06:04:52.438Z,85
2017-05-18T06:05:52.429Z,90
2017-05-18T06:06:52.132Z,95
2017-05-18T06:07:52.447Z,100
2017-05-18T06:08:52.474Z,105
2017-05-18T06:09:52.731Z,105
2017-05-18T06:10:52.729Z,110
2017-05-18T06:11:52.419Z,110
2017-05-18T06:12:52.730Z,115
2017-05-18T06:13:52.727Z,120
2017-05-18T06:14:52.723Z,125
2017-05-18T06:15:52.409Z,125
2017-05-18T06:16:52.723Z,125
2017-05-18T06:17:52.707Z,125
2017-05-18T06:18:52.721Z,125
2017-05-18T06:19:52.746Z,125
2017-05-18T06:20:52.407Z,130
2017-05-18T06:21:52.708Z,135
2017-05-18T06:22:52.703Z,145
2017-05-18T06:23:52.407Z,155
2017-05-18T06:24:52.704Z,180
2017-05-18T06:25:52.698Z,470
2017-05-18T06:26:52.689Z,500
2017-05-18T06:27:51.781Z,200
2017-05-18T06:28:52.692Z,170
2017-05-18T06:29:52.803Z,160
2017-05-18T06:30:52.689Z,160
2017-05-18T06:31:52.686Z,165
2017-05-18T06:32:52.072Z,170
2017-05-18T06:33:52.682Z,165
2017-05-18T06:34:52.078Z,160
2017-05-18T06:35:52.684Z,165
2017-05-18T06:36:52.379Z,170
2017-05-18T06:37:52.681Z,280
2017-05-18T06:38:52.417Z,725
2017-05-18T06:39:52.375Z,205
2017-05-18T06:40:52.371Z,150
2017-05-18T06:41:52.064Z,135
2017-05-18T06:42:52.366Z,130
2017-05-18T06:43:52.672Z,130
2017-05-18T06:44:52.062Z,140
2017-05-18T06:45:52.672Z,145
2017-05-18T06:46:52.060Z,155
2017-05-18T06:47:52.058Z,150
2017-05-18T06:48:52.356Z,155
2017-05-18T06:49:52.359Z,160
2017-05-18T06:50:52.663Z,150
2017-05-18T06:51:52.662Z,150
2017-05-18T06:52:52.050Z,165
2017-05-18T06:53:52.659Z,590
2017-05-18T06:54:52.663Z,155
2017-05-18T06:55:52.684Z,150
2017-05-18T06:56:52.655Z,150
2017-05-18T06:57:52.658Z,355
2017-05-18T06:58:52.659Z,265
2017-05-18T06:59:52.654Z,280
2017-05-18T07:00:52.652Z,270
2017-05-18T07:01:52.654Z,210
2017-05-18T07:02:52.043Z,215
2017-05-18T07:03:52.652Z,210
2017-05-18T07:04:52.040Z,190
2017-05-18T07:05:52.651Z,190
2017-05-18T07:06:52.654Z,195
2017-05-18T07:07:52.646Z,205
2017-05-18T07:08:52.343Z,355
2017-05-18T07:09:52.653Z,680
2017-05-18T07:10:52.638Z,655
2017-05-18T07:11:52.649Z,670
2017-05-18T07:12:52.342Z,510
2017-05-18T07:13:52.037Z,415
2017-05-18T07:14:52.330Z,380
2017-05-18T07:15:52.334Z,590
2017-05-18T07:16:52.335Z,580
2017-05-18T07:17:52.645Z,505
2017-05-18T07:18:52.334Z,610
2017-05-18T07:19:52.640Z,670
2017-05-18T07:20:52.638Z,670
2017-05-18T07:21:52.639Z,720
2017-05-18T07:22:52.335Z,705
2017-05-18T07:23:52.641Z,720
2017-05-18T07:24:52.327Z,730
2017-05-18T07:25:52.331Z,680
2017-05-18T07:26:52.328Z,645
2017-05-18T07:27:52.643Z,680
2017-05-18T07:28:52.641Z,725
2017-05-18T07:29:52.636Z,755
2017-05-18T07:30:52.640Z,640
2017-05-18T07:31:52.640Z,500
2017-05-18T07:32:52.638Z,530
2017-05-18T07:33:52.332Z,305
2017-05-18T07:34:52.332Z,265
2017-05-18T07:35:52.342Z,265
2017-05-18T07:36:52.637Z,220
2017-05-18T07:37:52.647Z,195
2017-05-18T07:38:52.651Z,185
2017-05-18T07:39:52.640Z,175
2017-05-18T07:40:52.644Z,160
2017-05-18T07:41:52.331Z,150
2017-05-18T07:42:51.725Z,140
2017-05-18T07:43:52.653Z,135
2017-05-18T07:44:52.659Z,145
2017-05-18T07:45:52.643Z,150
2017-05-18T07:46:52.640Z,165
2017-05-18T07:47:52.654Z,175
2017-05-18T07:48:52.340Z,195
2017-05-18T07:49:52.345Z,255
2017-05-18T07:50:52.345Z,270
2017-05-18T07:51:52.645Z,250
2017-05-18T07:52:52.338Z,245
2017-05-18T07:53:52.653Z,315
2017-05-18T07:54:52.337Z,315
2017-05-18T07:55:52.648Z,315
2017-05-18T07:56:52.642Z,315
2017-05-18T07:57:52.647Z,300
2017-05-18T07:58:52.346Z,285
2017-05-18T07:59:52.647Z,270
2017-05-18T08:00:52.644Z,255
2017-05-18T08:01:52.645Z,265
2017-05-18T08:02:52.646Z,255
2017-05-18T08:03:52.341Z,240
2017-05-18T08:04:52.648Z,195
2017-05-18T08:05:52.646Z,185
2017-05-18T08:06:52.646Z,180
2017-05-18T08:07:52.340Z,175
2017-05-18T08:08:52.336Z,175
2017-05-18T08:09:52.043Z,175
2017-05-18T08:10:52.038Z,175
2017-05-18T08:11:52.036Z,180
2017-05-18T08:12:52.644Z,180
2017-05-18T08:13:52.644Z,180
2017-05-18T08:14:52.642Z,180
2017-05-18T08:15:52.643Z,180
2017-05-18T08:16:52.343Z,185
2017-05-18T08:17:52.344Z,190
2017-05-18T08:18:52.642Z,185
2017-05-18T08:19:52.339Z,195
2017-05-18T08:20:52.642Z,215
2017-05-18T08:21:52.345Z,220
2017-05-18T08:22:52.337Z,200
2017-05-18T08:23:52.637Z,205
2017-05-18T08:24:52.028Z,190
2017-05-18T08:25:52.337Z,190
2017-05-18T08:26:52.640Z,185
2017-05-18T08:27:52.023Z,185
2017-05-18T08:28:52.645Z,190
2017-05-18T08:29:52.332Z,190
2017-05-18T08:30:52.639Z,190
2017-05-18T08:31:52.341Z,200
2017-05-18T08:32:52.393Z,200
2017-05-18T08:33:52.637Z,200
2017-05-18T08:34:52.638Z,195
2017-05-18T08:35:52.334Z,190
2017-05-18T08:36:52.641Z,175
2017-05-18T08:37:52.643Z,160
2017-05-18T08:38:52.637Z,160
2017-05-18T08:39:52.338Z,150
2017-05-18T08:40:52.329Z,145
2017-05-18T08:41:52.334Z,140
2017-05-18T08:42:52.649Z,135
2017-05-18T08:43:52.672Z,135
2017-05-18T08:44:52.634Z,125
2017-05-18T08:45:52.326Z,125
2017-05-18T08:46:52.330Z,120
2017-05-18T08:47:52.388Z,120
2017-05-18T08:48:52.020Z,115
2017-05-18T08:49:52.627Z,115
2017-05-18T08:50:52.627Z,115
2017-05-18T08:51:52.324Z,115
2017-05-18T08:52:52.362Z,110
2017-05-18T08:53:52.318Z,110
2017-05-18T08:54:52.629Z,110
2017-05-18T08:55:52.623Z,105
2017-05-18T08:56:52.623Z,105
2017-05-18T08:57:52.633Z,105
2017-05-18T08:58:52.322Z,105
2017-05-18T08:59:52.315Z,105
2017-05-18T09:00:52.620Z,105
2017-05-18T09:01:52.313Z,105
2017-05-18T09:02:52.319Z,105
2017-05-18T09:03:52.314Z,105
2017-05-18T09:04:52.012Z,100
2017-05-18T09:05:52.310Z,100
2017-05-18T09:06:52.618Z,100
2017-05-18T09:07:52.610Z,100
2017-05-18T09:08:52.611Z,100
2017-05-18T09:09:52.314Z,100
2017-05-18T09:10:52.303Z,100
2017-05-18T09:11:52.301Z,100
2017-05-18T09:12:52.609Z,100
2017-05-18T09:13:51.997Z,100
2017-05-18T09:14:52.625Z,100
2017-05-18T09:15:52.606Z,100
2017-05-18T09:16:52.303Z,100
2017-05-18T09:17:52.290Z,95
2017-05-18T09:18:52.608Z,95
2017-05-18T09:19:51.995Z,95
2017-05-18T09:20:52.296Z,95
2017-05-18T09:21:52.599Z,95
2017-05-18T09:22:51.982Z,90
2017-05-18T09:23:52.595Z,90
2017-05-18T09:24:52.597Z,90
2017-05-18T09:25:52.285Z,90
2017-05-18T09:26:51.990Z,85
2017-05-18T09:27:52.611Z,90
2017-05-18T09:28:52.586Z,90
2017-05-18T09:29:52.589Z,90
2017-05-18T09:30:52.595Z,90
2017-05-18T09:31:52.581Z,90
2017-05-18T09:32:52.586Z,90
2017-05-18T09:33:52.587Z,90
2017-05-18T09:34:52.578Z,95
2017-05-18T09:35:52.581Z,90
2017-05-18T09:36:52.578Z,95
2017-05-18T09:37:52.579Z,90
2017-05-18T09:38:52.271Z,90
2017-05-18T09:39:52.573Z,90
2017-05-18T09:40:52.571Z,90
2017-05-18T09:41:52.263Z,90
2017-05-18T09:42:52.570Z,90
2017-05-18T09:43:52.569Z,90
2017-05-18T09:44:52.625Z,90
2017-05-18T09:45:52.324Z,90
2017-05-18T09:46:52.568Z,85
2017-05-18T09:47:52.254Z,90
2017-05-18T09:48:52.559Z,90
2017-05-18T09:49:52.457Z,85
2017-05-18T09:50:52.563Z,90
2017-05-18T09:51:51.952Z,90
2017-05-18T09:52:52.248Z,90
2017-05-18T09:53:51.945Z,90
2017-05-18T09:54:52.244Z,90
2017-05-18T09:55:52.550Z,85
2017-05-18T09:56:52.247Z,85
2017-05-18T09:57:52.248Z,85
2017-05-18T09:58:52.248Z,85
2017-05-18T09:59:52.546Z,85
2017-05-18T10:00:52.547Z,85
2017-05-18T10:01:52.234Z,85
2017-05-18T10:02:52.239Z,85
2017-05-18T10:03:52.542Z,85
2017-05-18T10:04:52.539Z,75
2017-05-18T10:05:52.233Z,70
2017-05-18T10:06:52.534Z,70
2017-05-18T10:07:52.230Z,70
2017-05-18T10:08:52.231Z,80
2017-05-18T10:09:52.226Z,85
2017-05-18T10:10:52.534Z,100
2017-05-18T10:11:51.917Z,110
2017-05-18T10:12:52.534Z,115
2017-05-18T10:13:52.537Z,125
2017-05-18T10:14:52.528Z,125
2017-05-18T10:15:52.286Z,120
2017-05-18T10:16:52.223Z,125
2017-05-18T10:17:52.531Z,125
2017-05-18T10:18:52.217Z,130
2017-05-18T10:19:52.211Z,135
2017-05-18T10:20:52.518Z,135
2017-05-18T10:21:52.520Z,135
2017-05-18T10:22:52.515Z,135
2017-05-18T10:23:52.521Z,135
2017-05-18T10:24:52.210Z,135
2017-05-18T10:25:52.515Z,125
2017-05-18T10:26:51.898Z,130
2017-05-18T10:27:52.206Z,135
2017-05-18T10:28:51.894Z,125
2017-05-18T10:29:52.513Z,115
2017-05-18T10:30:52.504Z,110
2017-05-18T10:31:52.200Z,100
2017-05-18T10:32:52.503Z,90
2017-05-18T10:33:52.201Z,85
2017-05-18T10:34:51.891Z,85
2017-05-18T10:35:52.190Z,80
2017-05-18T10:36:52.199Z,80
2017-05-18T10:37:52.196Z,80
2017-05-18T10:38:52.196Z,75
2017-05-18T10:39:52.500Z,75
2017-05-18T10:40:52.491Z,75
2017-05-18T10:41:52.187Z,75
2017-05-18T10:42:51.888Z,75
2017-05-18T10:43:52.496Z,70
2017-05-18T10:44:52.192Z,70
2017-05-18T10:45:52.500Z,70
2017-05-18T10:46:52.489Z,70
2017-05-18T10:47:52.486Z,70
2017-05-18T10:48:52.496Z,70
2017-05-18T10:49:52.177Z,70
2017-05-18T10:50:52.176Z,70
2017-05-18T10:51:51.561Z,70
2017-05-18T10:52:52.480Z,70
2017-05-18T10:53:51.871Z,70
2017-05-18T10:54:52.473Z,70
2017-05-18T10:55:52.473Z,70
2017-05-18T10:56:52.172Z,70
2017-05-18T10:57:52.486Z,70
2017-05-18T10:58:52.475Z,70
2017-05-18T10:59:52.471Z,65
2017-05-18T11:00:52.472Z,70
2017-05-18T11:01:52.162Z,70
2017-05-18T11:02:52.483Z,65
2017-05-18T11:03:52.461Z,70
2017-05-18T11:04:52.468Z,70
2017-05-18T11:05:52.467Z,70
2017-05-18T11:06:52.162Z,70
2017-05-18T11:07:52.460Z,70
2017-05-18T11:08:52.466Z,70
2017-05-18T11:09:52.163Z,70
2017-05-18T11:10:52.454Z,70
2017-05-18T11:11:52.456Z,65
2017-05-18T11:12:52.457Z,65
2017-05-18T11:13:52.460Z,65
2017-05-18T11:14:52.449Z,65
2017-05-18T11:15:52.447Z,65
2017-05-18T11:16:52.147Z,65
2017-05-18T11:17:52.450Z,65
2017-05-18T11:18:52.449Z,65
2017-05-18T11:19:52.447Z,65
2017-05-18T11:20:52.445Z,65
2017-05-18T11:21:51.832Z,65
2017-05-18T11:22:52.443Z,65
2017-05-18T11:23:52.439Z,65
2017-05-18T11:24:52.439Z,65
2017-05-18T11:25:52.436Z,65
2017-05-18T11:26:52.433Z,65
2017-05-18T11:27:52.443Z,60
2017-05-18T11:28:52.133Z,60
2017-05-18T11:29:52.129Z,60
2017-05-18T11:30:52.432Z,60
2017-05-18T11:31:52.119Z,60
2017-05-18T11:32:52.427Z,60
2017-05-18T11:33:52.425Z,60
2017-05-18T11:34:52.427Z,60
2017-05-18T11:35:51.816Z,60
2017-05-18T11:36:52.113Z,60
2017-05-18T11:37:51.807Z,60
2017-05-18T11:38:52.418Z,60
2017-05-18T11:39:52.413Z,60
2017-05-18T11:40:52.105Z,60
2017-05-18T11:41:52.410Z,60
2017-05-18T11:42:52.110Z,60
2017-05-18T11:43:52.462Z,60
2017-05-18T11:44:52.162Z,65
2017-05-18T11:45:52.104Z,65
2017-05-18T11:46:52.170Z,65
2017-05-18T11:47:51.801Z,65
2017-05-18T11:48:52.418Z,65
2017-05-18T11:49:52.410Z,65
2017-05-18T11:50:52.097Z,65
2017-05-18T11:51:51.792Z,65
2017-05-18T11:52:52.398Z,65
2017-05-18T11:53:52.403Z,65
2017-05-18T11:54:52.405Z,65
2017-05-18T11:55:52.091Z,65
2017-05-18T11:56:52.390Z,60
2017-05-18T11:57:52.140Z,65
2017-05-18T11:58:52.138Z,60
2017-05-18T11:59:52.389Z,60
2017-05-18T12:00:52.080Z,60
2017-05-18T12:01:52.113Z,60
2017-05-18T12:02:52.383Z,60
2017-05-18T12:03:51.770Z,60
2017-05-18T12:04:51.769Z,65
2017-05-18T12:05:52.138Z,65
2017-05-18T12:06:52.375Z,65
2017-05-18T12:07:52.379Z,70
2017-05-18T12:08:52.075Z,70
2017-05-18T12:09:52.375Z,70
2017-05-18T12:10:52.397Z,75
2017-05-18T12:11:52.371Z,75
2017-05-18T12:12:52.077Z,70
2017-05-18T12:13:52.375Z,70
2017-05-18T12:14:51.760Z,75
2017-05-18T12:15:52.063Z,70
2017-05-18T12:16:52.059Z,70
2017-05-18T12:17:52.372Z,75
2017-05-18T12:18:52.368Z,75
2017-05-18T12:19:52.359Z,75
2017-05-18T12:20:52.359Z,80
2017-05-18T12:21:52.360Z,80
2017-05-18T12:22:52.053Z,80
2017-05-18T12:23:52.052Z,80
2017-05-18T12:24:52.363Z,85
2017-05-18T12:25:52.055Z,85
2017-05-18T12:26:52.047Z,90
2017-05-18T12:27:52.043Z,90
2017-05-18T12:28:52.351Z,90
2017-05-18T12:29:52.358Z,90
2017-05-18T12:30:52.346Z,90
2017-05-18T12:31:52.349Z,90
2017-05-18T12:32:52.041Z,90
2017-05-18T12:33:52.042Z,85
2017-05-18T12:34:51.730Z,85
2017-05-18T12:35:51.731Z,80
2017-05-18T12:36:52.033Z,80
2017-05-18T12:37:52.345Z,75
2017-05-18T12:38:52.335Z,75
2017-05-18T12:39:52.337Z,70
2017-05-18T12:40:52.026Z,70
2017-05-18T12:41:52.339Z,70
2017-05-18T12:42:52.032Z,70
2017-05-18T12:43:52.027Z,70
2017-05-18T12:44:52.027Z,70
2017-05-18T12:45:52.020Z,70
2017-05-18T12:46:52.019Z,75
2017-05-18T12:47:52.347Z,75
2017-05-18T12:48:52.396Z,80
2017-05-18T12:49:52.017Z,85
2017-05-18T12:50:52.325Z,90
2017-05-18T12:51:52.322Z,95
2017-05-18T12:52:52.323Z,100
2017-05-18T12:53:52.317Z,105
2017-05-18T12:54:52.014Z,110
2017-05-18T12:55:52.020Z,115
2017-05-18T12:56:52.315Z,115
2017-05-18T12:57:52.007Z,115
2017-05-18T12:58:52.313Z,120
2017-05-18T12:59:52.316Z,120
2017-05-18T13:00:52.315Z,120
2017-05-18T13:01:52.304Z,120
2017-05-18T13:02:52.316Z,125
2017-05-18T13:03:52.003Z,120
2017-05-18T13:04:52.065Z,120
2017-05-18T13:05:52.299Z,120
2017-05-18T13:06:52.308Z,120
2017-05-18T13:07:52.301Z,120
2017-05-18T13:08:51.693Z,120
2017-05-18T13:09:52.370Z,115
2017-05-18T13:10:52.298Z,110
2017-05-18T13:11:51.996Z,110
2017-05-18T13:12:52.304Z,110
2017-05-18T13:13:52.299Z,110
2017-05-18T13:14:51.990Z,110
2017-05-18T13:15:51.985Z,110
2017-05-18T13:16:52.292Z,115
2017-05-18T13:17:51.994Z,115
2017-05-18T13:18:51.993Z,115
2017-05-18T13:19:52.056Z,110
2017-05-18T13:20:51.675Z,110
2017-05-18T13:21:52.296Z,105
2017-05-18T13:22:51.983Z,105
2017-05-18T13:23:51.681Z,105
2017-05-18T13:24:51.979Z,105
2017-05-18T13:25:52.292Z,105
2017-05-18T13:26:52.294Z,105
2017-05-18T13:27:51.980Z,105
2017-05-18T13:28:52.291Z,105
2017-05-18T13:29:52.289Z,105
2017-05-18T13:30:51.977Z,105
2017-05-18T13:31:51.682Z,105
2017-05-18T13:32:52.288Z,105
2017-05-18T13:33:52.281Z,105
2017-05-18T13:34:51.983Z,100
2017-05-18T13:35:52.281Z,100
2017-05-18T13:36:52.275Z,100
2017-05-18T13:37:51.972Z,100
2017-05-18T13:38:52.278Z,100
2017-05-18T13:39:52.283Z,100
2017-05-18T13:40:51.970Z,100
2017-05-18T13:41:52.271Z,100
2017-05-18T13:42:51.965Z,100
2017-05-18T13:43:52.274Z,100
2017-05-18T13:44:52.278Z,95
2017-05-18T13:45:52.269Z,85
2017-05-18T13:46:51.974Z,80
2017-05-18T13:47:52.270Z,80
2017-05-18T13:48:51.967Z,75
2017-05-18T13:49:52.268Z,75
2017-05-18T13:50:52.324Z,75
2017-05-18T13:51:51.956Z,75
2017-05-18T13:52:51.961Z,75
2017-05-18T13:53:52.263Z,75
2017-05-18T13:54:52.265Z,75
2017-05-18T13:55:52.265Z,80
2017-05-18T13:56:51.961Z,80
2017-05-18T13:57:52.013Z,85
2017-05-18T13:58:51.648Z,85
2017-05-18T13:59:51.955Z,85
2017-05-18T14:00:51.951Z,85
2017-05-18T14:01:52.264Z,80
2017-05-18T14:02:52.258Z,80
2017-05-18T14:03:51.951Z,85
2017-05-18T14:04:51.951Z,90
2017-05-18T14:05:52.250Z,90
2017-05-18T14:06:52.252Z,90
2017-05-18T14:07:51.948Z,85
2017-05-18T14:08:52.254Z,85
2017-05-18T14:09:52.452Z,85
2017-05-18T14:10:51.654Z,85
2017-05-18T14:11:52.248Z,85
2017-05-18T14:12:52.260Z,90
2017-05-18T14:13:52.146Z,90
2017-05-18T14:14:52.248Z,85